05/23 18:00 XV

Žã‚¢‰J‚ª~‚Á‚Ä‚¢‚é
1,500ft‚ɉ_‚ª­‚µ
2,000ft‚ɉ_‚ª‘½‚¢
3,000ft‚ɉ_‚ª‘½‚¢

’nã•—: 090‹2kt

ã‹ó•—
13,000ft: 270‹30kt
10,000ft: 230‹26kt
 7,000ft: 180‹26kt
 3,000ft: 180‹6kt

’nãF 18Ž
ã‹óF -0.1Ž

“ú–vF 18:45

ŽÀ‹µ“V‹C}


—\‘z“V‹C}


RJTJ 230900Z 09002KT 9999 -RA FEW015 BKN020 BKN030 18/14 Q1007 RMK 1CU015 6SC020 7SC030 A2974=

GPV‹CÛ—\•ñ
‹CÛ’¡
“ú–{‹CÛ‹¦‰ï

‹Ê—„ƒ_ƒ€•ú—¬—Ê(1,000m3/s‚ð’´‚¦‚½7ŽžŠÔŒã‚ÉDZŠ¥…)
‘¾˜Y‰q–å‹´ƒeƒŒƒ[ƒ^…ˆÊ(11m‚ÅDZŠ¥…)

skydive.jp